Time;durP1;ratioP1;P1;durP2;ratioP2;P2;SDS_P1;SDS_P2;PMS_P1;PMS_P2;Temp;Humidity;BMP_temperature;BMP_pressure;BME280_temperature;BME280_humidity;BME280_pressure;Samples;Min_cycle;Max_cycle;Signal;HPM_P1;HPM_P2
2022/04/07 00:00:52;;;;;;;0.87;0.87;;;11.20;99.90;;;;;;4974999;28;20670;-62
2022/04/07 00:03:18;;;;;;;0.93;0.93;;;11.20;99.90;;;;;;4974875;28;20537;-64
2022/04/07 00:05:44;;;;;;;1.00;0.83;;;11.20;99.90;;;;;;4975058;28;20247;-64
2022/04/07 00:08:10;;;;;;;1.37;1.27;;;11.20;99.90;;;;;;4974989;28;20179;-63
2022/04/07 00:10:36;;;;;;;0.60;0.60;;;11.10;99.90;;;;;;4974807;28;20494;-61
2022/04/07 00:13:03;;;;;;;1.05;0.88;;;11.10;99.90;;;;;;4974887;28;20183;-62
2022/04/07 00:15:29;;;;;;;2.20;1.10;;;11.00;99.90;;;;;;4974631;28;20749;-62
2022/04/07 00:17:54;;;;;;;1.10;0.80;;;10.90;99.90;;;;;;4975059;28;20168;-63
2022/04/07 00:20:21;;;;;;;1.20;1.10;;;10.80;99.90;;;;;;4974440;28;21050;-62
2022/04/07 00:22:48;;;;;;;1.75;1.45;;;10.80;99.90;;;;;;4970756;28;20211;-62
2022/04/07 00:25:13;;;;;;;1.67;1.58;;;10.70;99.90;;;;;;4974271;28;20196;-64
2022/04/07 00:27:39;;;;;;;0.90;0.90;;;10.60;99.90;;;;;;4974881;28;20208;-62
2022/04/07 00:30:06;;;;;;;1.75;1.15;;;10.50;99.90;;;;;;4974524;28;20522;-65
2022/04/07 00:32:32;;;;;;;0.77;0.70;;;10.40;99.90;;;;;;4973808;28;20670;-62
2022/04/07 00:34:57;;;;;;;0.87;0.87;;;10.30;99.90;;;;;;4974006;28;20222;-61
2022/04/07 00:37:24;;;;;;;0.77;0.77;;;10.30;99.90;;;;;;4974589;28;20714;-64
2022/04/07 00:39:50;;;;;;;1.30;1.20;;;10.10;99.90;;;;;;4974484;28;20184;-63
2022/04/07 00:42:16;;;;;;;1.08;1.00;;;10.10;99.90;;;;;;4974468;28;20542;-64
2022/04/07 00:44:43;;;;;;;0.52;0.52;;;10.00;99.90;;;;;;4974061;28;20571;-64
2022/04/07 00:47:09;;;;;;;1.00;1.00;;;9.90;99.90;;;;;;4974636;28;20291;-61
2022/04/07 00:49:35;;;;;;;0.65;0.65;;;9.80;99.90;;;;;;4974755;28;20539;-63
2022/04/07 00:52:01;;;;;;;1.20;1.10;;;9.80;99.90;;;;;;4974412;28;20180;-61
2022/04/07 00:54:28;;;;;;;0.60;0.60;;;9.80;99.90;;;;;;4974121;28;20179;-62
2022/04/07 00:56:55;;;;;;;1.60;1.30;;;9.80;99.90;;;;;;4974476;28;20774;-61
2022/04/07 00:59:22;;;;;;;0.60;0.60;;;9.90;99.90;;;;;;4974394;28;20601;-64
2022/04/07 01:01:48;;;;;;;0.57;0.57;;;9.90;99.90;;;;;;4974107;28;20258;-64
2022/04/07 01:04:15;;;;;;;0.80;0.80;;;10.00;99.90;;;;;;4974311;28;20187;-63
2022/04/07 01:06:44;;;;;;;0.82;0.82;;;10.10;99.90;;;;;;4974947;28;20591;-63
2022/04/07 01:09:10;;;;;;;0.85;0.85;;;10.20;99.90;;;;;;4978447;28;20176;-64
2022/04/07 01:11:37;;;;;;;1.20;1.20;;;10.20;99.90;;;;;;4977877;28;20188;-64
2022/04/07 01:14:04;;;;;;;0.60;0.60;;;10.30;99.90;;;;;;4977961;28;20180;-65
2022/04/07 01:16:30;;;;;;;0.80;0.80;;;10.30;99.90;;;;;;4977946;28;20722;-63
2022/04/07 01:18:59;;;;;;;0.80;0.80;;;10.40;99.90;;;;;;4978345;28;20176;-63
2022/04/07 01:21:26;;;;;;;1.08;0.65;;;10.50;99.90;;;;;;4978051;28;20264;-64
2022/04/07 01:24:11;;;;;;;0.80;0.80;;;10.50;99.90;;;;;;4977732;28;20191;-63
2022/04/07 01:26:39;;;;;;;0.68;0.65;;;10.60;99.90;;;;;;4977703;28;20243;-61
2022/04/07 01:29:08;;;;;;;0.50;0.50;;;10.50;99.90;;;;;;4977900;28;20223;-64
2022/04/07 01:31:34;;;;;;;0.50;0.50;;;10.50;99.90;;;;;;4977775;28;20259;-63
2022/04/07 01:34:02;;;;;;;0.50;0.50;;;10.50;99.90;;;;;;4977367;28;20176;-62
2022/04/07 01:36:30;;;;;;;1.58;0.70;;;10.40;99.90;;;;;;4977873;28;20192;-65
2022/04/07 01:38:58;;;;;;;0.47;0.47;;;10.40;99.90;;;;;;4977818;28;20192;-62
2022/04/07 01:41:25;;;;;;;0.75;0.75;;;10.50;99.90;;;;;;4977526;28;20222;-63
2022/04/07 01:43:51;;;;;;;1.25;0.70;;;10.50;99.90;;;;;;4977191;28;20172;-64
2022/04/07 01:46:18;;;;;;;0.57;0.57;;;10.50;99.90;;;;;;4977526;28;20258;-63
2022/04/07 01:48:46;;;;;;;0.88;0.88;;;10.50;99.90;;;;;;4977436;28;20651;-63
2022/04/07 01:51:12;;;;;;;0.80;0.60;;;10.50;99.90;;;;;;4977265;28;20177;-62
2022/04/07 01:53:39;;;;;;;0.40;0.40;;;10.50;99.90;;;;;;4977149;28;20594;-64
2022/04/07 01:56:06;;;;;;;0.70;0.43;;;10.50;99.90;;;;;;4977287;28;20200;-63
2022/04/07 01:58:32;;;;;;;0.77;0.52;;;10.50;99.90;;;;;;4977403;28;20659;-64
2022/04/07 02:00:59;;;;;;;0.73;0.70;;;10.40;99.90;;;;;;4976866;28;20219;-62
2022/04/07 02:03:24;;;;;;;0.70;0.70;;;10.40;99.90;;;;;;4976666;28;20290;-63
2022/04/07 02:05:50;;;;;;;0.60;0.60;;;10.40;99.90;;;;;;4976928;28;20239;-62
2022/04/07 02:08:15;;;;;;;0.77;0.50;;;10.40;99.90;;;;;;4977201;28;20176;-64
2022/04/07 02:10:41;;;;;;;0.77;0.60;;;10.40;99.90;;;;;;4976654;28;20177;-62
2022/04/07 02:13:06;;;;;;;0.67;0.67;;;10.40;99.90;;;;;;4976780;28;20180;-61
2022/04/07 02:15:32;;;;;;;0.40;0.40;;;10.50;99.90;;;;;;4976989;28;20563;-64
2022/04/07 02:17:58;;;;;;;0.77;0.77;;;10.50;99.90;;;;;;4976456;28;20219;-61
2022/04/07 02:20:23;;;;;;;0.70;0.70;;;10.50;99.90;;;;;;4976978;28;20199;-62
2022/04/07 02:22:50;;;;;;;0.77;0.77;;;10.50;99.90;;;;;;4976902;28;20176;-62
2022/04/07 02:25:15;;;;;;;0.88;0.57;;;10.50;99.90;;;;;;4976392;28;20195;-65
2022/04/07 02:27:42;;;;;;;0.93;0.93;;;10.50;99.90;;;;;;4976453;28;20199;-62
2022/04/07 02:30:13;;;;;;;1.00;1.00;;;10.50;99.90;;;;;;4976638;28;20395;-62
2022/04/07 02:32:40;;;;;;;0.70;0.70;;;10.50;99.90;;;;;;4976634;28;20180;-65
2022/04/07 02:35:07;;;;;;;0.70;0.60;;;10.50;99.90;;;;;;4976110;28;20208;-63
2022/04/07 02:37:32;;;;;;;0.70;0.70;;;10.50;99.90;;;;;;4976316;28;20173;-63
2022/04/07 02:39:58;;;;;;;0.97;0.87;;;10.50;99.90;;;;;;4976729;28;20323;-65
2022/04/07 02:42:24;;;;;;;0.53;0.53;;;10.50;99.90;;;;;;4976594;28;20172;-62
2022/04/07 02:44:49;;;;;;;0.80;0.80;;;10.50;99.90;;;;;;4975875;28;20254;-63
2022/04/07 02:47:15;;;;;;;0.60;0.60;;;10.50;99.90;;;;;;4976084;28;20200;-62
2022/04/07 02:49:41;;;;;;;0.77;0.77;;;10.50;99.90;;;;;;4976456;28;20714;-62
2022/04/07 02:52:10;;;;;;;1.15;0.70;;;10.50;99.90;;;;;;4976325;28;20549;-61
2022/04/07 02:54:37;;;;;;;0.65;0.65;;;10.40;99.90;;;;;;4975830;28;20180;-64
2022/04/07 02:57:04;;;;;;;1.88;1.05;;;10.50;99.90;;;;;;4975892;28;20239;-66
2022/04/07 02:59:31;;;;;;;1.13;1.08;;;10.50;99.90;;;;;;4976259;28;20536;-63
2022/04/07 03:01:58;;;;;;;0.70;0.70;;;10.50;99.90;;;;;;4976131;28;20176;-65
2022/04/07 03:04:24;;;;;;;0.70;0.52;;;10.50;99.90;;;;;;4975611;28;20191;-62
2022/04/07 03:06:53;;;;;;;0.70;0.70;;;10.50;99.90;;;;;;4976077;28;20218;-63
2022/04/07 03:09:19;;;;;;;0.70;0.70;;;10.50;99.90;;;;;;4975686;28;20215;-63
2022/04/07 03:11:48;;;;;;;1.33;0.70;;;10.50;99.90;;;;;;4976074;28;20570;-62
2022/04/07 03:14:14;;;;;;;0.50;0.50;;;10.60;99.90;;;;;;4975409;28;20171;-64
2022/04/07 03:16:40;;;;;;;0.63;0.63;;;10.60;99.90;;;;;;4975713;28;20211;-63
2022/04/07 03:19:06;;;;;;;0.50;0.50;;;10.60;99.90;;;;;;4975498;28;20216;-62
2022/04/07 03:21:32;;;;;;;0.60;0.60;;;10.60;99.90;;;;;;4975573;28;20203;-62
2022/04/07 03:23:57;;;;;;;0.50;0.50;;;10.50;99.90;;;;;;4975123;28;20453;-61
2022/04/07 03:26:23;;;;;;;0.60;0.60;;;10.50;99.90;;;;;;4975377;28;20203;-63
2022/04/07 03:28:49;;;;;;;0.73;0.70;;;10.50;99.90;;;;;;4975075;28;20187;-61
2022/04/07 03:31:14;;;;;;;0.70;0.70;;;10.50;99.90;;;;;;4974948;28;20179;-64
2022/04/07 03:33:40;;;;;;;0.43;0.43;;;10.50;99.90;;;;;;4975209;28;20491;-62
2022/04/07 03:36:06;;;;;;;0.53;0.53;;;10.50;99.90;;;;;;4973828;28;20678;-65
2022/04/07 03:38:32;;;;;;;0.52;0.52;;;10.50;99.90;;;;;;4974830;28;20512;-62
2022/04/07 03:40:58;;;;;;;1.23;0.70;;;10.50;99.90;;;;;;4975564;28;20186;-65
2022/04/07 03:43:23;;;;;;;0.40;0.40;;;10.50;99.90;;;;;;4975022;28;20412;-63
2022/04/07 03:45:49;;;;;;;0.63;0.63;;;10.50;99.90;;;;;;4974668;28;20204;-62
2022/04/07 03:48:15;;;;;;;1.37;0.70;;;10.50;99.90;;;;;;4975189;28;20412;-62
2022/04/07 03:50:41;;;;;;;0.57;0.57;;;10.50;99.90;;;;;;4974980;28;20170;-64
2022/04/07 03:53:07;;;;;;;0.70;0.70;;;10.60;99.90;;;;;;4974803;28;20211;-63
2022/04/07 03:55:33;;;;;;;0.60;0.60;;;10.50;99.90;;;;;;4974675;28;20199;-63
2022/04/07 03:57:59;;;;;;;0.40;0.40;;;10.50;99.90;;;;;;4974981;28;20219;-61
2022/04/07 04:00:26;;;;;;;1.80;0.97;;;10.60;99.90;;;;;;4974805;28;20211;-61
2022/04/07 04:02:52;;;;;;;0.82;0.60;;;10.60;99.90;;;;;;4975040;28;20508;-62
2022/04/07 04:05:18;;;;;;;0.50;0.50;;;10.50;99.90;;;;;;4974204;28;20200;-63
2022/04/07 04:07:44;;;;;;;0.75;0.75;;;10.60;99.90;;;;;;4974951;28;20208;-63
2022/04/07 04:10:10;;;;;;;0.50;0.50;;;10.60;99.90;;;;;;4974794;28;20646;-63
2022/04/07 04:12:35;;;;;;;0.73;0.70;;;10.60;99.90;;;;;;4974743;28;20176;-64
2022/04/07 04:15:01;;;;;;;0.50;0.50;;;10.60;99.90;;;;;;4974472;28;20442;-66
2022/04/07 04:17:31;;;;;;;0.83;0.60;;;10.60;99.90;;;;;;4974097;28;20215;-64
2022/04/07 04:19:56;;;;;;;0.50;0.40;;;10.60;99.90;;;;;;4974657;28;20414;-62
2022/04/07 04:22:22;;;;;;;0.97;0.43;;;10.60;99.90;;;;;;4974832;28;20187;-62
2022/04/07 04:24:48;;;;;;;0.60;0.60;;;10.60;99.90;;;;;;4974425;28;20255;-61
2022/04/07 04:27:14;;;;;;;0.57;0.57;;;10.60;99.90;;;;;;4976308;28;20283;-61
2022/04/07 04:29:40;;;;;;;0.40;0.40;;;10.60;99.90;;;;;;4985032;28;20172;-61
2022/04/07 04:32:07;;;;;;;0.95;0.47;;;10.60;99.90;;;;;;4974360;28;20425;-62
2022/04/07 04:34:32;;;;;;;0.50;0.50;;;10.60;99.90;;;;;;4973860;28;20242;-61
2022/04/07 04:36:58;;;;;;;0.50;0.50;;;10.60;99.90;;;;;;4974341;28;20674;-63
2022/04/07 04:39:24;;;;;;;1.43;1.43;;;10.60;99.90;;;;;;4974529;28;20173;-63
2022/04/07 04:41:50;;;;;;;0.50;0.50;;;10.60;99.90;;;;;;4974653;28;20230;-64
2022/04/07 04:44:15;;;;;;;0.70;0.70;;;10.60;99.90;;;;;;4974022;28;20168;-64
2022/04/07 04:46:41;;;;;;;0.60;0.60;;;10.60;99.90;;;;;;4973638;28;20206;-62
2022/04/07 04:49:07;;;;;;;0.50;0.50;;;10.60;99.90;;;;;;4973844;28;20168;-62
2022/04/07 04:51:32;;;;;;;0.57;0.57;;;10.70;99.90;;;;;;4973912;28;20172;-62
2022/04/07 04:53:58;;;;;;;0.50;0.50;;;10.70;99.90;;;;;;4973779;28;20175;-65
2022/04/07 04:56:26;;;;;;;6.53;1.37;;;10.70;99.90;;;;;;4973688;28;20196;-65
2022/04/07 04:58:53;;;;;;;0.50;0.50;;;10.70;99.90;;;;;;4974148;28;20261;-65
2022/04/07 05:01:18;;;;;;;0.45;0.45;;;10.70;99.90;;;;;;4973680;28;20168;-60
2022/04/07 05:03:44;;;;;;;0.53;0.53;;;10.80;99.90;;;;;;4985957;28;20266;-63
2022/04/07 05:06:09;;;;;;;0.40;0.40;;;10.80;99.90;;;;;;4983039;28;20678;-61
2022/04/07 05:08:35;;;;;;;0.63;0.63;;;10.80;99.90;;;;;;4974157;28;20539;-66
2022/04/07 05:11:01;;;;;;;0.90;0.90;;;10.80;99.90;;;;;;4975007;28;20226;-62
2022/04/07 05:13:26;;;;;;;0.70;0.70;;;10.80;99.90;;;;;;4973784;28;20176;-64
2022/04/07 05:15:52;;;;;;;0.47;0.40;;;10.80;99.90;;;;;;4977719;28;20199;-61
2022/04/07 05:18:18;;;;;;;2.93;0.60;;;10.80;99.90;;;;;;4978973;28;20212;-63
2022/04/07 05:20:43;;;;;;;0.40;0.40;;;10.90;99.90;;;;;;4972351;28;20175;-63
2022/04/07 05:23:09;;;;;;;0.50;0.50;;;10.90;99.90;;;;;;4979824;28;20543;-62
2022/04/07 05:25:35;;;;;;;1.03;0.97;;;10.90;99.90;;;;;;4983151;28;20367;-64
2022/04/07 05:28:00;;;;;;;0.30;0.30;;;10.90;99.90;;;;;;4971957;28;20230;-63
2022/04/07 05:30:26;;;;;;;0.60;0.60;;;11.00;99.90;;;;;;4974548;28;20238;-63
2022/04/07 05:32:51;;;;;;;0.70;0.70;;;11.00;99.90;;;;;;4990802;28;20187;-64
2022/04/07 05:35:17;;;;;;;1.60;1.50;;;11.10;99.90;;;;;;4983951;28;20211;-63
2022/04/07 05:37:43;;;;;;;0.57;0.57;;;11.10;99.90;;;;;;4974091;28;20710;-63
2022/04/07 05:40:10;;;;;;;0.50;0.50;;;11.10;99.90;;;;;;4974350;28;20419;-63
2022/04/07 05:42:36;;;;;;;0.80;0.80;;;11.10;99.90;;;;;;4973292;28;20183;-61
2022/04/07 05:45:03;;;;;;;0.30;0.30;;;11.10;99.90;;;;;;4972530;28;20200;-62
2022/04/07 05:47:29;;;;;;;0.50;0.50;;;11.20;99.90;;;;;;4974183;28;20208;-63
2022/04/07 05:49:55;;;;;;;1.27;0.83;;;11.20;99.90;;;;;;4966531;28;20180;-63
2022/04/07 05:52:21;;;;;;;0.40;0.40;;;11.20;99.90;;;;;;4975045;28;20547;-61
2022/04/07 05:54:47;;;;;;;0.70;0.70;;;11.20;99.90;;;;;;4974194;28;20200;-63
2022/04/07 05:57:13;;;;;;;0.50;0.50;;;11.20;99.90;;;;;;4973078;28;20518;-62
2022/04/07 05:59:38;;;;;;;0.50;0.50;;;11.20;99.90;;;;;;4973054;28;20592;-63
2022/04/07 06:02:04;;;;;;;0.90;0.77;;;11.30;99.90;;;;;;4979756;28;20609;-62
2022/04/07 06:04:30;;;;;;;0.50;0.50;;;11.40;99.90;;;;;;4976655;28;20168;-64
2022/04/07 06:06:55;;;;;;;0.60;0.60;;;11.50;99.90;;;;;;4976883;28;20466;-62
2022/04/07 06:09:21;;;;;;;0.87;0.87;;;11.70;99.90;;;;;;4976773;28;20180;-63
2022/04/07 06:11:47;;;;;;;0.40;0.40;;;12.20;99.90;;;;;;4991124;28;20190;-63
2022/04/07 06:14:12;;;;;;;0.40;0.40;;;12.70;99.90;;;;;;4995789;28;20561;-62
2022/04/07 06:16:38;;;;;;;1.17;0.40;;;13.20;99.90;;;;;;4985653;28;20242;-65
2022/04/07 06:19:04;;;;;;;0.93;0.63;;;13.60;99.90;;;;;;4987780;28;20206;-62
2022/04/07 06:21:29;;;;;;;0.30;0.30;;;13.90;99.90;;;;;;4996332;28;20269;-62
2022/04/07 06:23:57;;;;;;;0.93;0.50;;;14.10;99.90;;;;;;4986277;28;20610;-63
2022/04/07 06:26:26;;;;;;;0.50;0.50;;;14.10;99.90;;;;;;4976135;28;20230;-62
2022/04/07 06:28:51;;;;;;;0.50;0.50;;;14.00;99.90;;;;;;4974672;28;20470;-63
2022/04/07 06:31:17;;;;;;;0.80;0.80;;;13.80;99.90;;;;;;4976930;28;20833;-63
2022/04/07 06:33:43;;;;;;;6.30;0.93;;;13.70;99.90;;;;;;4976094;28;20642;-64
2022/04/07 06:36:09;;;;;;;0.43;0.37;;;13.50;99.90;;;;;;4976180;28;20548;-61
2022/04/07 06:38:34;;;;;;;0.50;0.50;;;13.30;99.90;;;;;;4976443;28;20178;-64
2022/04/07 06:41:01;;;;;;;0.37;0.37;;;13.10;99.90;;;;;;4976470;28;20720;-63
2022/04/07 06:43:27;;;;;;;0.43;0.43;;;12.90;99.90;;;;;;4975844;28;20630;-62
2022/04/07 06:45:53;;;;;;;0.40;0.40;;;12.70;99.90;;;;;;4978232;28;20458;-60
2022/04/07 06:48:19;;;;;;;0.73;0.40;;;12.60;99.90;;;;;;4987490;28;20435;-63
2022/04/07 06:50:44;;;;;;;0.50;0.50;;;12.60;99.90;;;;;;4984745;28;20436;-62
2022/04/07 06:53:13;;;;;;;0.50;0.50;;;12.50;99.90;;;;;;4975866;28;20412;-62
2022/04/07 06:55:39;;;;;;;0.60;0.60;;;12.40;99.90;;;;;;4975894;28;20252;-63
2022/04/07 06:58:08;;;;;;;0.50;0.40;;;12.50;99.90;;;;;;4987412;28;20427;-62
2022/04/07 07:00:41;;;;;;;0.40;0.30;;;12.50;99.90;;;;;;4988003;28;20240;-63
2022/04/07 07:03:07;;;;;;;0.70;0.70;;;12.50;99.90;;;;;;4975761;28;20433;-64
2022/04/07 07:05:34;;;;;;;0.30;0.30;;;12.40;99.90;;;;;;4974771;28;20232;-62
2022/04/07 07:08:15;;;;;;;1.80;0.47;;;12.40;99.90;;;;;;4976927;28;20201;-63
2022/04/07 07:10:42;;;;;;;0.40;0.40;;;12.40;99.90;;;;;;4975626;28;20707;-64
2022/04/07 07:13:08;;;;;;;0.43;0.40;;;12.50;99.90;;;;;;4977151;28;20468;-64
2022/04/07 07:15:34;;;;;;;0.50;0.50;;;12.60;99.90;;;;;;4982014;28;20451;-62
2022/04/07 07:17:59;;;;;;;0.30;0.30;;;12.60;99.90;;;;;;4975469;28;20421;-63
2022/04/07 07:20:25;;;;;;;0.30;0.30;;;12.60;99.90;;;;;;4975363;28;20274;-64
2022/04/07 07:22:51;;;;;;;0.40;0.40;;;12.70;99.90;;;;;;4975603;28;20179;-63
2022/04/07 07:25:16;;;;;;;1.70;0.40;;;12.90;99.90;;;;;;4992675;28;20198;-62
2022/04/07 07:27:47;;;;;;;0.77;0.70;;;13.00;99.90;;;;;;4995207;28;20204;-63
2022/04/07 07:30:15;;;;;;;0.40;0.40;;;13.10;99.90;;;;;;4978116;28;20178;-63
2022/04/07 07:32:46;;;;;;;0.33;0.33;;;13.10;99.90;;;;;;4993764;28;20487;-61
2022/04/07 07:35:12;;;;;;;0.60;0.40;;;13.10;99.90;;;;;;4978649;28;20465;-60
2022/04/07 07:37:56;;;;;;;1.17;0.30;;;13.00;99.90;;;;;;4975377;28;20415;-64
2022/04/07 07:40:24;;;;;;;0.50;0.40;;;13.00;99.90;;;;;;4990161;28;20520;-62
2022/04/07 07:42:52;;;;;;;0.50;0.40;;;13.10;99.90;;;;;;4975355;28;20409;-63
2022/04/07 07:45:18;;;;;;;0.43;0.43;;;13.20;99.90;;;;;;4987978;28;20923;-65
2022/04/07 07:47:44;;;;;;;0.80;0.40;;;13.30;99.90;;;;;;4967586;28;20533;-62
2022/04/07 07:50:10;;;;;;;0.30;0.30;;;13.20;99.90;;;;;;4976102;28;20458;-62
2022/04/07 07:52:36;;;;;;;0.40;0.40;;;13.30;99.90;;;;;;4975619;28;20436;-63
2022/04/07 07:55:02;;;;;;;0.40;0.40;;;13.30;99.90;;;;;;4975019;28;20516;-61
2022/04/07 07:57:28;;;;;;;1.50;1.40;;;13.30;99.90;;;;;;4974557;28;20275;-62
2022/04/07 07:59:54;;;;;;;1.33;0.40;;;13.30;99.90;;;;;;4980725;28;20442;-63
2022/04/07 08:02:20;;;;;;;0.67;0.67;;;13.30;99.90;;;;;;4991786;28;20911;-62
2022/04/07 08:04:46;;;;;;;0.50;0.50;;;13.20;99.90;;;;;;4981670;28;20210;-65
2022/04/07 08:07:11;;;;;;;0.30;0.30;;;13.20;99.90;;;;;;4988182;28;20213;-65
2022/04/07 08:09:37;;;;;;;0.50;0.40;;;13.20;99.90;;;;;;4975728;28;20429;-61
2022/04/07 08:12:03;;;;;;;0.63;0.63;;;13.20;99.90;;;;;;4975010;28;20179;-62
2022/04/07 08:14:30;;;;;;;1.05;0.60;;;13.10;99.90;;;;;;4973597;28;20453;-63
2022/04/07 08:16:56;;;;;;;0.40;0.40;;;13.10;99.90;;;;;;4973755;28;20192;-63
2022/04/07 08:19:22;;;;;;;0.70;0.43;;;13.00;99.90;;;;;;4974199;28;20827;-66
2022/04/07 08:21:47;;;;;;;0.43;0.43;;;13.00;99.90;;;;;;4976183;28;20433;-62
2022/04/07 08:24:16;;;;;;;0.40;0.40;;;13.10;99.90;;;;;;4991929;28;20188;-64
2022/04/07 08:26:42;;;;;;;0.60;0.60;;;13.10;99.90;;;;;;4989907;28;20213;-63
2022/04/07 08:29:08;;;;;;;0.40;0.30;;;13.20;99.90;;;;;;4979636;28;20239;-63
2022/04/07 08:31:34;;;;;;;0.30;0.30;;;13.20;99.90;;;;;;4974018;28;20413;-61
2022/04/07 08:34:00;;;;;;;0.40;0.40;;;13.30;99.90;;;;;;4973846;28;20419;-64
2022/04/07 08:36:25;;;;;;;0.50;0.40;;;13.30;99.90;;;;;;4983517;28;20703;-64
2022/04/07 08:38:51;;;;;;;0.40;0.40;;;13.40;99.90;;;;;;4986865;28;20183;-64
2022/04/07 08:41:18;;;;;;;0.30;0.30;;;13.40;99.90;;;;;;4973941;28;20220;-63
2022/04/07 08:43:44;;;;;;;0.40;0.40;;;13.50;99.90;;;;;;4973852;28;20181;-64
2022/04/07 08:46:13;;;;;;;0.40;0.40;;;13.50;99.90;;;;;;4973814;28;20994;-63
2022/04/07 08:48:42;;;;;;;0.30;0.30;;;13.50;99.90;;;;;;4973968;28;20465;-64
2022/04/07 08:51:10;;;;;;;0.47;0.47;;;13.40;99.90;;;;;;4974028;28;20421;-61
2022/04/07 08:53:37;;;;;;;0.60;0.60;;;13.40;99.90;;;;;;4973816;28;20397;-64
2022/04/07 08:56:04;;;;;;;0.50;0.50;;;13.40;99.90;;;;;;4972615;28;20429;-62
2022/04/07 08:58:31;;;;;;;0.30;0.30;;;13.50;99.90;;;;;;4974222;28;20422;-65
2022/04/07 09:00:56;;;;;;;0.93;0.60;;;13.50;99.90;;;;;;4973872;28;20799;-62
2022/04/07 09:03:23;;;;;;;0.30;0.30;;;13.60;99.90;;;;;;4973889;28;20419;-62
2022/04/07 09:05:57;;;;;;;0.47;0.47;;;13.70;99.90;;;;;;4973850;28;20449;-61
2022/04/07 09:08:34;;;;;;;1.60;0.30;;;13.80;99.90;;;;;;4974100;28;20404;-63
2022/04/07 09:11:02;;;;;;;0.30;0.30;;;13.80;99.90;;;;;;4974225;28;20414;-63
2022/04/07 09:13:39;;;;;;;1.03;0.30;;;13.80;99.60;;;;;;4972484;28;20409;-65
2022/04/07 09:16:12;;;;;;;2.90;1.10;;;13.80;99.50;;;;;;4973676;28;20507;-61
2022/04/07 09:18:49;;;;;;;0.40;0.40;;;13.80;99.30;;;;;;4973833;28;20433;-63
2022/04/07 09:21:24;;;;;;;0.40;0.30;;;13.70;99.60;;;;;;4974249;28;20410;-63
2022/04/07 09:23:55;;;;;;;0.40;0.30;;;13.70;99.50;;;;;;4973550;28;20408;-64
2022/04/07 09:26:21;;;;;;;0.30;0.30;;;13.70;99.40;;;;;;4973819;28;20495;-63
2022/04/07 09:28:47;;;;;;;0.30;0.30;;;13.70;99.30;;;;;;4976244;28;20398;-64
2022/04/07 09:31:15;;;;;;;5.77;3.07;;;13.80;99.30;;;;;;4977568;28;20897;-63
2022/04/07 09:33:41;;;;;;;0.80;0.80;;;13.80;99.10;;;;;;4977407;28;20171;-61
2022/04/07 09:36:19;;;;;;;1.50;1.13;;;13.80;99.40;;;;;;4976287;28;20452;-63
2022/04/07 09:38:52;;;;;;;0.50;0.47;;;13.90;99.70;;;;;;4977627;28;20425;-64
2022/04/07 09:41:19;;;;;;;0.53;0.53;;;13.90;99.60;;;;;;4977514;28;20436;-63
2022/04/07 09:43:50;;;;;;;0.30;0.30;;;13.80;99.90;;;;;;4977158;28;20423;-63
2022/04/07 09:46:21;;;;;;;0.40;0.40;;;13.80;99.90;;;;;;4977413;28;20464;-62
2022/04/07 09:49:09;;;;;;;0.43;0.43;;;13.70;99.90;;;;;;4977524;28;20409;-64
2022/04/07 09:51:48;;;;;;;1.17;0.50;;;13.70;99.90;;;;;;4977243;28;20408;-64
2022/04/07 09:54:16;;;;;;;0.57;0.50;;;13.70;99.90;;;;;;4976707;28;20409;-62
2022/04/07 09:56:46;;;;;;;1.23;0.50;;;13.70;99.90;;;;;;4975948;28;20440;-63
2022/04/07 09:59:14;;;;;;;1.80;0.60;;;13.60;99.90;;;;;;4977193;28;20408;-62
2022/04/07 10:01:39;;;;;;;0.40;0.33;;;13.70;99.90;;;;;;4977202;28;20393;-65
2022/04/07 10:04:08;;;;;;;0.50;0.50;;;13.80;99.90;;;;;;4976580;28;20515;-62
2022/04/07 10:06:36;;;;;;;1.00;0.50;;;13.90;99.90;;;;;;4976973;28;20631;-62
2022/04/07 10:09:05;;;;;;;1.23;0.53;;;14.00;99.90;;;;;;4977191;28;20898;-62
2022/04/07 10:11:31;;;;;;;0.50;0.50;;;14.20;99.90;;;;;;4975859;28;20390;-63
2022/04/07 10:13:58;;;;;;;0.30;0.30;;;14.40;99.90;;;;;;4976306;28;20410;-62
2022/04/07 10:16:25;;;;;;;0.70;0.60;;;14.40;99.60;;;;;;4976558;28;20222;-62
2022/04/07 10:19:05;;;;;;;2.10;1.07;;;14.50;99.60;;;;;;4977081;28;20482;-65
2022/04/07 10:21:57;;;;;;;0.70;0.70;;;14.50;99.50;;;;;;4976830;28;20415;-63
2022/04/07 10:24:36;;;;;;;0.50;0.50;;;14.60;99.20;;;;;;4976586;28;20399;-62
2022/04/07 10:27:09;;;;;;;0.47;0.47;;;14.70;99.30;;;;;;4977084;28;20455;-63
2022/04/07 10:29:38;;;;;;;0.30;0.30;;;14.90;99.40;;;;;;4977024;28;20422;-63
2022/04/07 10:32:12;;;;;;;0.30;0.30;;;15.10;98.50;;;;;;4977265;28;20418;-63
2022/04/07 10:34:55;;;;;;;0.40;0.40;;;15.20;98.20;;;;;;4976624;28;20404;-61
2022/04/07 10:37:32;;;;;;;1.03;0.70;;;15.30;97.90;;;;;;4977183;28;20392;-64
2022/04/07 10:40:36;;;;;;;0.40;0.40;;;15.30;98.50;;;;;;4977414;28;20418;-64
2022/04/07 10:43:14;;;;;;;0.50;0.50;;;15.30;97.20;;;;;;4976480;28;20411;-63
2022/04/07 10:46:11;;;;;;;0.63;0.63;;;15.30;97.50;;;;;;4976266;28;20806;-64
2022/04/07 10:48:43;;;;;;;0.57;0.53;;;15.40;97.80;;;;;;4976040;28;21034;-64
2022/04/07 10:51:10;;;;;;;0.37;0.37;;;15.50;98.10;;;;;;4976530;28;20396;-62
2022/04/07 10:53:41;;;;;;;1.07;0.60;;;15.60;98.10;;;;;;4975771;28;20730;-63
2022/04/07 10:56:34;;;;;;;0.50;0.50;;;15.60;97.40;;;;;;4976241;28;20486;-64
2022/04/07 10:59:27;;;;;;;0.50;0.50;;;15.70;97.40;;;;;;4976494;28;20386;-62
2022/04/07 11:01:59;;;;;;;1.60;0.40;;;15.90;97.40;;;;;;4974472;28;20586;-63
2022/04/07 11:04:24;;;;;;;0.30;0.30;;;16.00;97.70;;;;;;4975856;28;20445;-63
2022/04/07 11:07:05;;;;;;;0.50;0.40;;;16.10;96.60;;;;;;4975834;28;20961;-65
2022/04/07 11:09:50;;;;;;;0.60;0.50;;;16.00;97.10;;;;;;4975792;28;20220;-63
2022/04/07 11:12:18;;;;;;;4.33;2.40;;;16.00;97.00;;;;;;4975761;28;20397;-63
2022/04/07 11:14:48;;;;;;;0.80;0.80;;;16.00;97.00;;;;;;4975575;28;20787;-62
2022/04/07 11:17:46;;;;;;;0.40;0.40;;;16.10;96.80;;;;;;4975709;28;20930;-62
2022/04/07 11:20:20;;;;;;;0.70;0.50;;;16.30;96.90;;;;;;4975833;28;20499;-64
2022/04/07 11:22:56;;;;;;;0.93;0.50;;;16.60;96.70;;;;;;4975631;28;20440;-64
2022/04/07 11:25:33;;;;;;;11.70;0.60;;;16.90;95.80;;;;;;4975118;28;20410;-64
2022/04/07 11:28:14;;;;;;;0.40;0.40;;;16.90;96.00;;;;;;4975673;28;20439;-64
2022/04/07 11:30:50;;;;;;;1.00;0.40;;;17.00;95.50;;;;;;4975441;28;20414;-61
2022/04/07 11:33:27;;;;;;;0.60;0.50;;;17.00;95.70;;;;;;4975046;28;20413;-65
2022/04/07 11:36:06;;;;;;;0.50;0.40;;;16.90;95.40;;;;;;4987869;28;20456;-62
2022/04/07 11:38:37;;;;;;;0.40;0.40;;;16.80;95.30;;;;;;4984893;28;20424;-65
2022/04/07 11:41:10;;;;;;;0.40;0.40;;;16.70;95.60;;;;;;4984638;28;20408;-64
2022/04/07 11:43:39;;;;;;;0.50;0.50;;;16.60;95.70;;;;;;4988267;28;20802;-63
2022/04/07 11:46:04;;;;;;;0.43;0.30;;;16.70;95.60;;;;;;4979847;28;20448;-63
2022/04/07 11:48:35;;;;;;;0.30;0.30;;;16.80;95.80;;;;;;4988239;28;20911;-62
2022/04/07 11:51:12;;;;;;;0.50;0.50;;;16.80;95.50;;;;;;4974652;28;20195;-62
2022/04/07 11:53:39;;;;;;;0.47;0.40;;;16.80;95.70;;;;;;4974682;28;20380;-64
2022/04/07 11:56:20;;;;;;;0.40;0.37;;;16.70;95.50;;;;;;4974513;28;20400;-65
2022/04/07 11:59:01;;;;;;;0.37;0.33;;;16.80;95.50;;;;;;4974372;28;20428;-64
2022/04/07 12:01:28;;;;;;;0.40;0.40;;;16.80;95.30;;;;;;4974060;28;20428;-64
2022/04/07 12:04:02;;;;;;;1.47;0.33;;;16.80;95.50;;;;;;4974444;28;20765;-64
2022/04/07 12:06:33;;;;;;;0.30;0.27;;;16.70;95.50;;;;;;4974689;28;20453;-62
2022/04/07 12:09:01;;;;;;;0.47;0.40;;;16.60;95.30;;;;;;4974980;28;20415;-61
2022/04/07 12:11:28;;;;;;;0.30;0.30;;;16.50;95.70;;;;;;4974704;28;20470;-61
2022/04/07 12:13:56;;;;;;;0.40;0.40;;;16.40;95.70;;;;;;4974467;28;20440;-63
2022/04/07 12:16:25;;;;;;;0.40;0.30;;;16.30;96.00;;;;;;4974691;28;20997;-65
2022/04/07 12:19:03;;;;;;;0.30;0.30;;;16.20;96.10;;;;;;4974599;28;20507;-63
2022/04/07 12:21:48;;;;;;;0.30;0.30;;;16.10;96.90;;;;;;4974667;28;20754;-63
2022/04/07 12:24:14;;;;;;;0.30;0.30;;;16.00;96.40;;;;;;4974066;28;20414;-65
2022/04/07 12:26:44;;;;;;;0.40;0.40;;;15.80;96.60;;;;;;4974499;28;20462;-63
2022/04/07 12:29:18;;;;;;;0.60;0.53;;;15.80;96.80;;;;;;4974554;28;20531;-63
2022/04/07 12:31:44;;;;;;;0.30;0.30;;;15.70;97.40;;;;;;4974065;28;20424;-64
2022/04/07 12:34:12;;;;;;;0.30;0.30;;;15.70;97.50;;;;;;4974204;28;20386;-67
2022/04/07 12:36:41;;;;;;;6.47;0.50;;;15.60;97.70;;;;;;4974361;28;20431;-64
2022/04/07 12:39:15;;;;;;;1.07;0.40;;;15.40;98.00;;;;;;4974225;28;20420;-63
2022/04/07 12:41:54;;;;;;;1.70;0.50;;;15.40;98.20;;;;;;4974519;28;20466;-66
2022/04/07 12:44:26;;;;;;;0.40;0.40;;;15.40;98.20;;;;;;4973919;28;20378;-63
2022/04/07 12:46:54;;;;;;;0.40;0.40;;;15.20;98.50;;;;;;4974227;28;20444;-64
2022/04/07 12:49:31;;;;;;;0.50;0.30;;;15.20;98.60;;;;;;4974166;28;20424;-64
2022/04/07 12:52:14;;;;;;;0.30;0.30;;;15.20;98.50;;;;;;4974386;28;20411;-64
2022/04/07 12:55:03;;;;;;;0.30;0.30;;;15.10;98.60;;;;;;4973752;28;20426;-64